Terminal Aerodrome Forecast
Issued by NWS

Home | Current Version | Previous Version | Text Only | Print | Product List | Glossary On
Versions: 1 2 3 4 5 6 7 8 9 10 11 12 13 14
000
FTUS45 KCYS 192322
TAFLAR
TAF
KLAR 192322Z 2000/2024 28015G25KT P6SM SKC
     FM200200 25008KT P6SM SKC
     FM200600 18005KT P6SM SKC
     FM202000 14012KT P6SM BKN100=

USA.gov is the U.S. government's official web portal to all federal, state and local government web resources and services.